Hollywood, FL

8:15 AM EDT on May 25, 2015 (GMT -0400)
Hollywood Marina | | Change Station
CLOSE
Current Station
Personal Weather Station
Location: Hollywood, FL
Elevation: 2 ft
Nearby Weather Stations

Elev 2 ft 26.01 °N, 80.12 °W | Updated 48 seconds ago

Mostly Cloudy
Mostly Cloudy
82.2 °F
Feels Like 89 °F
N
10.0
Wind Variable Wind from East
Gusts 18.0 mph

Today
High -- | Low -- °F
--% Chance of Precip.
Yesterday
High -- | Low -- °F
Precip. -- in
6:30 AM 8:04 PM
Waxing Crescent, 48% visible
Pressure 30.14 in
Visibility 10.0 miles
Clouds Mostly Cloudy 2000 ft
Mostly Cloudy 3800 ft
Heat Index 89 °F
Dew Point 75 °F
Humidity 79%
Rainfall 0.00 in
Snow Depth Not available.
UV 1 out of 12
Pollen 4.30 out of 12
Air Quality Not available.
Flu Activity Sporadic
METAR KFLL 251153Z 10014KT 10SM BKN020 BKN038 28/24 A3015 RMK AO2 SLP207 60001 70001 T02780239 10278 20267 53011

More Conditions Fewer Conditions

Pressure 30.14 in
Visibility 10.0 miles
Clouds Mostly Cloudy 2000 ft
Mostly Cloudy 3800 ft
Heat Index 89 °F
Dew Point 75 °F
Humidity 79%
Rainfall 0.00 in
Snow Depth Not available.
UV 1 out of 12
Pollen 4.30 out of 12
Air Quality Not available.
Flu Activity Sporadic
METAR KFLL 251153Z 10014KT 10SM BKN020 BKN038 28/24 A3015 RMK AO2 SLP207 60001 70001 T02780239 10278 20267 53011

More Conditions Fewer Conditions

Nowcast | as of 5:46 am EDT on May 25, 2015

Isolated showers will continue to develop over the Atlantic waters early this morning and move to the west quickly. A few of the showers could even move into the East Coast Metro areas of South Florida before dissipating. Rainfall amounts will be light with the passing showers. Mariners can also expect higher seas in and near the showers.

×

10-Day Weather Forecast

Almanac

Astronomy

May. 25, 2015 Rise Set
Actual Time
Civil Twilight
Nautical Twilight
Astronomical Twilight
Moon
Length of Visible Light
Length of Day
Tomorrow will be .
, % of the Moon is Illuminated

Today's Extremes

State Highs State Lows

Community

WunderPhotos

Upload Photos

1,823,986 photos uploaded!

WunderBlogs® & News

Nearby

Air Quality

  Air Quality AQ Index Pollutant
Not available.

Snow Depth

Station Depth Elevation

Earthquake Activity

City Distance Mag. Time & Date
Minimum magnitude displayed is 2.5.

Coastal Water Temperatures

Place Temperature

Stations

Nearby Weather Stations

Station Location Temp. Windchill Dew Point Humidity Wind Precip. Elev Updated Type